createdAt,value
2019-04-07T00:00:15.278Z,999.49
2019-04-07T00:01:15.818Z,999.50
2019-04-07T00:02:15.505Z,999.44
2019-04-07T00:03:16.149Z,999.46
2019-04-07T00:04:15.874Z,999.48
2019-04-07T00:05:16.150Z,999.49
2019-04-07T00:06:16.261Z,999.45
2019-04-07T00:07:16.417Z,999.54
2019-04-07T00:08:16.901Z,999.51
2019-04-07T00:09:16.857Z,999.47
2019-04-07T00:10:16.883Z,999.46
2019-04-07T00:11:17.862Z,999.50
2019-04-07T00:12:17.366Z,999.49
2019-04-07T00:13:17.434Z,999.51
2019-04-07T00:14:18.066Z,999.48
2019-04-07T00:15:17.766Z,999.47
2019-04-07T00:16:18.522Z,999.53
2019-04-07T00:17:18.358Z,999.49
2019-04-07T00:18:19.145Z,999.52
2019-04-07T00:19:18.428Z,999.45
2019-04-07T00:20:18.704Z,999.48
2019-04-07T00:21:18.840Z,999.44
2019-04-07T00:22:19.929Z,999.50
2019-04-07T00:23:18.981Z,999.41
2019-04-07T00:24:19.320Z,999.39
2019-04-07T00:25:19.360Z,999.37
2019-04-07T00:26:19.512Z,999.43
2019-04-07T00:27:20.178Z,999.43
2019-04-07T00:28:19.853Z,999.48
2019-04-07T00:29:19.992Z,999.48
2019-04-07T00:30:20.117Z,999.54
2019-04-07T00:31:20.539Z,999.47
2019-04-07T00:32:21.134Z,999.44
2019-04-07T00:33:20.723Z,999.47
2019-04-07T00:34:22.205Z,999.40
2019-04-07T00:35:28.100Z,999.53
2019-04-07T00:36:23.331Z,999.45
2019-04-07T00:37:22.861Z,999.32
2019-04-07T00:38:21.766Z,999.43
2019-04-07T00:39:23.270Z,999.44
2019-04-07T00:40:22.848Z,999.38
2019-04-07T00:41:22.233Z,999.45
2019-04-07T00:42:22.611Z,999.41
2019-04-07T00:43:22.866Z,999.42
2019-04-07T00:44:22.777Z,999.42
2019-04-07T00:45:22.953Z,999.37
2019-04-07T00:46:23.388Z,999.34
2019-04-07T00:47:23.462Z,999.35
2019-04-07T00:48:24.405Z,999.33
2019-04-07T00:49:23.702Z,999.39
2019-04-07T00:50:24.118Z,999.35
2019-04-07T00:51:24.045Z,999.34
2019-04-07T00:52:24.820Z,999.32
2019-04-07T00:53:24.375Z,999.33
2019-04-07T00:54:25.261Z,999.26
2019-04-07T00:55:25.396Z,999.30
2019-04-07T00:56:24.847Z,999.28
2019-04-07T00:57:25.376Z,999.28
2019-04-07T00:58:25.263Z,999.32
2019-04-07T00:59:25.488Z,999.31
2019-04-07T01:00:25.675Z,999.29
2019-04-07T01:01:26.141Z,999.25
2019-04-07T01:02:26.094Z,999.29
2019-04-07T01:03:26.295Z,999.30
2019-04-07T01:04:26.590Z,999.27
2019-04-07T01:05:35.461Z,999.22
2019-04-07T01:06:29.454Z,999.24
2019-04-07T01:07:27.924Z,999.26
2019-04-07T01:08:27.323Z,999.21
2019-04-07T01:09:27.712Z,999.24
2019-04-07T01:10:27.746Z,999.28
2019-04-07T01:11:27.809Z,999.26
2019-04-07T01:12:29.338Z,999.25
2019-04-07T01:13:28.086Z,999.27
2019-04-07T01:14:28.952Z,999.32
2019-04-07T01:15:28.439Z,999.27
2019-04-07T01:16:28.631Z,999.36
2019-04-07T01:17:29.131Z,999.30
2019-04-07T01:18:28.946Z,999.33
2019-04-07T01:19:29.164Z,999.33
2019-04-07T01:20:29.567Z,999.33
2019-04-07T01:21:29.513Z,999.36
2019-04-07T01:22:30.921Z,999.37
2019-04-07T01:23:29.843Z,999.39
2019-04-07T01:24:30.412Z,999.36
2019-04-07T01:25:30.244Z,999.40
2019-04-07T01:26:30.383Z,999.43
2019-04-07T01:27:31.128Z,999.41
2019-04-07T01:28:30.672Z,999.37
2019-04-07T01:29:30.923Z,999.43
2019-04-07T01:30:31.881Z,999.39
2019-04-07T01:31:31.139Z,999.45
2019-04-07T01:32:31.408Z,999.40
2019-04-07T01:33:31.485Z,999.44
2019-04-07T01:34:31.723Z,999.39
2019-04-07T01:35:32.087Z,999.44
2019-04-07T01:36:32.515Z,999.39
2019-04-07T01:37:32.864Z,999.42
2019-04-07T01:38:33.139Z,999.42
2019-04-07T01:39:32.649Z,999.46
2019-04-07T01:40:33.112Z,999.40
2019-04-07T01:41:32.989Z,999.49
2019-04-07T01:42:33.415Z,999.46
2019-04-07T01:43:33.929Z,999.40
2019-04-07T01:44:33.510Z,999.45
2019-04-07T01:45:34.257Z,999.40
2019-04-07T01:46:33.933Z,999.39
2019-04-07T01:47:34.326Z,999.41
2019-04-07T01:48:34.637Z,999.42
2019-04-07T01:49:34.790Z,999.36
2019-04-07T01:50:34.606Z,999.38
2019-04-07T01:51:34.939Z,999.41
2019-04-07T01:52:36.453Z,999.41
2019-04-07T01:53:35.618Z,999.42
2019-04-07T01:54:35.269Z,999.38
2019-04-07T01:55:35.766Z,999.44
2019-04-07T01:56:36.229Z,999.43
2019-04-07T01:57:36.363Z,999.40
2019-04-07T01:58:35.927Z,999.44
2019-04-07T01:59:36.504Z,999.42
2019-04-07T02:00:36.194Z,999.44
2019-04-07T02:01:37.252Z,999.47
2019-04-07T02:02:36.702Z,999.51
2019-04-07T02:03:37.328Z,999.50
2019-04-07T02:04:37.438Z,999.55
2019-04-07T02:05:37.379Z,999.58
2019-04-07T02:06:37.396Z,999.63
2019-04-07T02:07:37.525Z,999.63
2019-04-07T02:08:37.483Z,999.60
2019-04-07T02:09:37.935Z,999.60
2019-04-07T02:10:37.839Z,999.60
2019-04-07T02:11:38.605Z,999.57
2019-04-07T02:12:38.199Z,999.67
2019-04-07T02:13:38.366Z,999.66
2019-04-07T02:14:39.322Z,999.65
2019-04-07T02:15:39.362Z,999.65
2019-04-07T02:16:38.761Z,999.63
2019-04-07T02:17:39.024Z,999.66
2019-04-07T02:18:39.142Z,999.63
2019-04-07T02:19:39.565Z,999.59
2019-04-07T02:20:39.506Z,999.62
2019-04-07T02:21:40.333Z,999.68
2019-04-07T02:22:39.881Z,999.66
2019-04-07T02:23:40.538Z,999.72
2019-04-07T02:24:40.167Z,999.65
2019-04-07T02:25:40.583Z,999.70
2019-04-07T02:26:40.581Z,999.73
2019-04-07T02:27:40.624Z,999.75
2019-04-07T02:28:40.868Z,999.73
2019-04-07T02:29:40.947Z,999.72
2019-04-07T02:30:41.596Z,999.73
2019-04-07T02:31:42.258Z,999.72
2019-04-07T02:32:42.123Z,999.70
2019-04-07T02:33:42.502Z,999.74
2019-04-07T02:34:42.873Z,999.71
2019-04-07T02:35:43.101Z,999.77
2019-04-07T02:36:43.189Z,999.76
2019-04-07T02:37:42.628Z,999.79
2019-04-07T02:38:42.635Z,999.82
2019-04-07T02:39:43.746Z,999.81
2019-04-07T02:40:42.954Z,999.87
2019-04-07T02:41:43.330Z,999.84
2019-04-07T02:42:43.348Z,999.84
2019-04-07T02:43:44.514Z,999.87
2019-04-07T02:44:45.161Z,999.97
2019-04-07T02:45:43.876Z,999.89
2019-04-07T02:46:44.878Z,999.97
2019-04-07T02:47:44.576Z,1000.01
2019-04-07T02:48:44.638Z,999.98
2019-04-07T02:49:45.684Z,999.98
2019-04-07T02:50:46.515Z,1000.02
2019-04-07T02:51:45.528Z,1000.03
2019-04-07T02:52:45.314Z,1000.03
2019-04-07T02:53:46.956Z,999.99
2019-04-07T02:54:46.400Z,1000.00
2019-04-07T02:55:45.870Z,999.98
2019-04-07T02:56:47.271Z,1000.02
2019-04-07T02:57:47.385Z,999.98
2019-04-07T02:58:47.752Z,1000.03
2019-04-07T02:59:46.434Z,1000.06
2019-04-07T03:00:46.844Z,1000.07
2019-04-07T03:01:46.762Z,1000.03
2019-04-07T03:02:47.653Z,1000.05
2019-04-07T03:03:46.852Z,1000.11
2019-04-07T03:04:47.498Z,1000.07
2019-04-07T03:05:47.647Z,1000.06
2019-04-07T03:06:51.029Z,1000.02
2019-04-07T03:07:50.342Z,1000.01
2019-04-07T03:08:49.152Z,1000.10
2019-04-07T03:09:47.940Z,1000.13
2019-04-07T03:10:48.098Z,1000.20
2019-04-07T03:11:49.043Z,1000.19
2019-04-07T03:12:48.693Z,1000.15
2019-04-07T03:13:49.012Z,1000.16
2019-04-07T03:14:50.570Z,1000.15
2019-04-07T03:15:49.403Z,1000.20
2019-04-07T03:16:49.594Z,1000.30
2019-04-07T03:17:49.783Z,1000.33
2019-04-07T03:18:50.723Z,1000.37
2019-04-07T03:19:49.675Z,1000.38
2019-04-07T03:20:49.844Z,1000.40
2019-04-07T03:21:50.014Z,1000.43
2019-04-07T03:22:50.725Z,1000.43
2019-04-07T03:23:51.314Z,1000.46
2019-04-07T03:24:50.583Z,1000.43
2019-04-07T03:25:50.993Z,1000.45
2019-04-07T03:26:51.452Z,1000.47
2019-04-07T03:27:52.760Z,1000.48
2019-04-07T03:28:51.463Z,1000.47
2019-04-07T03:29:51.539Z,1000.52
2019-04-07T03:30:52.473Z,1000.54
2019-04-07T03:31:53.552Z,1000.53
2019-04-07T03:32:54.937Z,1000.54
2019-04-07T03:33:54.491Z,1000.53
2019-04-07T03:34:55.434Z,1000.55
2019-04-07T03:35:55.725Z,1000.60
2019-04-07T03:37:16.988Z,1000.63
2019-04-07T03:37:54.924Z,1000.61
2019-04-07T03:38:53.717Z,1000.60
2019-04-07T03:39:53.899Z,1000.55
2019-04-07T03:40:53.402Z,1000.52
2019-04-07T03:41:53.749Z,1000.63
2019-04-07T03:42:55.267Z,1000.58
2019-04-07T03:43:53.993Z,1000.58
2019-04-07T03:44:54.045Z,1000.59
2019-04-07T03:45:54.998Z,1000.56
2019-04-07T03:46:55.162Z,1000.53
2019-04-07T03:47:54.722Z,1000.57
2019-04-07T03:48:55.636Z,1000.57
2019-04-07T03:49:55.079Z,1000.63
2019-04-07T03:50:55.093Z,1000.62
2019-04-07T03:51:55.983Z,1000.59
2019-04-07T03:52:56.339Z,1000.53
2019-04-07T03:53:56.033Z,1000.56
2019-04-07T03:54:56.927Z,1000.58
2019-04-07T03:55:55.997Z,1000.54
2019-04-07T03:56:56.537Z,1000.53
2019-04-07T03:57:56.948Z,1000.54
2019-04-07T03:58:57.654Z,1000.53
2019-04-07T03:59:57.677Z,1000.50
2019-04-07T04:00:57.530Z,1000.55
2019-04-07T04:01:57.888Z,1000.54
2019-04-07T04:02:57.889Z,1000.56
2019-04-07T04:03:57.375Z,1000.52
2019-04-07T04:04:57.713Z,1000.57
2019-04-07T04:05:57.917Z,1000.58
2019-04-07T04:06:57.906Z,1000.52
2019-04-07T04:07:58.086Z,1000.58
2019-04-07T04:08:58.619Z,1000.55
2019-04-07T04:09:58.397Z,1000.51
2019-04-07T04:10:59.944Z,1000.52
2019-04-07T04:11:58.697Z,1000.50
2019-04-07T04:12:58.817Z,1000.49
2019-04-07T04:13:59.055Z,1000.51
2019-04-07T04:15:00.211Z,1000.45
2019-04-07T04:15:59.511Z,1000.41
2019-04-07T04:16:59.621Z,1000.38
2019-04-07T04:17:59.851Z,1000.41
2019-04-07T04:19:00.197Z,1000.35
2019-04-07T04:20:00.419Z,1000.35
2019-04-07T04:21:01.396Z,1000.36
2019-04-07T04:22:00.656Z,1000.39
2019-04-07T04:23:00.909Z,1000.37
2019-04-07T04:24:01.404Z,1000.36
2019-04-07T04:25:01.158Z,1000.32
2019-04-07T04:26:02.574Z,1000.34
2019-04-07T04:27:02.523Z,1000.34
2019-04-07T04:28:01.657Z,1000.41
2019-04-07T04:29:02.626Z,1000.31
2019-04-07T04:30:02.967Z,1000.31
2019-04-07T04:31:02.254Z,1000.35
2019-04-07T04:32:03.139Z,1000.31
2019-04-07T04:33:02.520Z,1000.35
2019-04-07T04:34:03.356Z,1000.32
2019-04-07T04:35:03.266Z,1000.31
2019-04-07T04:36:02.990Z,1000.34
2019-04-07T04:37:03.923Z,1000.37
2019-04-07T04:38:03.894Z,1000.32
2019-04-07T04:39:04.734Z,1000.33
2019-04-07T04:40:03.900Z,1000.34
2019-04-07T04:41:04.859Z,1000.27
2019-04-07T04:42:05.525Z,1000.37
2019-04-07T04:43:04.727Z,1000.37
2019-04-07T04:44:04.735Z,1000.35
2019-04-07T04:45:06.067Z,1000.39
2019-04-07T04:46:08.687Z,1000.38
2019-04-07T04:47:06.353Z,1000.36
2019-04-07T04:48:06.575Z,1000.35
2019-04-07T04:49:06.686Z,1000.35
2019-04-07T04:50:06.352Z,1000.37
2019-04-07T04:51:06.665Z,1000.37
2019-04-07T04:52:07.067Z,1000.34
2019-04-07T04:53:06.387Z,1000.40
2019-04-07T04:54:07.100Z,1000.36
2019-04-07T04:55:07.193Z,1000.38
2019-04-07T04:56:07.547Z,1000.34
2019-04-07T04:57:09.238Z,1000.32
2019-04-07T04:58:08.757Z,1000.37
2019-04-07T04:59:07.563Z,1000.31
2019-04-07T05:00:07.562Z,1000.37
2019-04-07T05:01:07.701Z,1000.31
2019-04-07T05:02:07.859Z,1000.29
2019-04-07T05:03:08.207Z,1000.36
2019-04-07T05:04:08.148Z,1000.31
2019-04-07T05:05:09.547Z,1000.33
2019-04-07T05:06:10.222Z,1000.33
2019-04-07T05:07:08.622Z,1000.36
2019-04-07T05:08:09.412Z,1000.40
2019-04-07T05:09:09.406Z,1000.47
2019-04-07T05:10:10.108Z,1000.45
2019-04-07T05:11:09.534Z,1000.48
2019-04-07T05:12:10.127Z,1000.49
2019-04-07T05:13:10.399Z,1000.41
2019-04-07T05:14:11.431Z,1000.46
2019-04-07T05:15:10.852Z,1000.50
2019-04-07T05:16:10.622Z,1000.43
2019-04-07T05:17:11.674Z,1000.40
2019-04-07T05:18:10.888Z,1000.44
2019-04-07T05:19:11.068Z,1000.46
2019-04-07T05:20:11.092Z,1000.47
2019-04-07T05:21:11.855Z,1000.48
2019-04-07T05:22:11.358Z,1000.44
2019-04-07T05:23:11.483Z,1000.44
2019-04-07T05:24:11.652Z,1000.39
2019-04-07T05:25:12.030Z,1000.43
2019-04-07T05:26:11.955Z,1000.39
2019-04-07T05:27:12.783Z,1000.41
2019-04-07T05:28:12.393Z,1000.37
2019-04-07T05:29:12.547Z,1000.37
2019-04-07T05:30:12.780Z,1000.35
2019-04-07T05:31:13.290Z,1000.28
2019-04-07T05:32:12.950Z,1000.30
2019-04-07T05:33:13.995Z,1000.23
2019-04-07T05:34:16.753Z,1000.31
2019-04-07T05:35:15.485Z,1000.23
2019-04-07T05:36:14.782Z,1000.19
2019-04-07T05:37:14.100Z,1000.21
2019-04-07T05:38:14.694Z,1000.21
2019-04-07T05:39:14.343Z,999.98
2019-04-07T05:40:15.564Z,999.81
2019-04-07T05:41:14.960Z,999.67
2019-04-07T05:42:14.821Z,999.67
2019-04-07T05:43:15.123Z,999.59
2019-04-07T05:44:15.152Z,999.51
2019-04-07T05:45:15.925Z,999.41
2019-04-07T05:46:16.006Z,999.40
2019-04-07T05:47:15.622Z,999.37
2019-04-07T05:48:19.310Z,999.34
2019-04-07T05:49:16.941Z,999.30
2019-04-07T05:50:16.645Z,999.17
2019-04-07T05:51:16.505Z,998.88
2019-04-07T05:52:17.208Z,998.96
2019-04-07T05:53:17.047Z,998.97
2019-04-07T05:54:19.492Z,998.92
2019-04-07T05:55:20.641Z,999.06
2019-04-07T05:56:18.560Z,999.18
2019-04-07T05:57:17.552Z,999.16
2019-04-07T05:58:18.012Z,999.29
2019-04-07T05:59:17.828Z,999.32
2019-04-07T06:00:18.747Z,999.33
2019-04-07T06:01:21.733Z,999.31
2019-04-07T06:02:20.256Z,999.32
2019-04-07T06:03:18.741Z,999.39
2019-04-07T06:04:19.320Z,999.35
2019-04-07T06:05:19.532Z,999.34
2019-04-07T06:06:20.536Z,999.33
2019-04-07T06:07:19.204Z,999.30
2019-04-07T06:08:27.771Z,999.25
2019-04-07T06:09:21.559Z,999.24
2019-04-07T06:10:23.873Z,999.25
2019-04-07T06:11:22.043Z,999.22
2019-04-07T06:12:20.357Z,999.26
2019-04-07T06:13:20.303Z,999.12
2019-04-07T06:14:20.533Z,999.09
2019-04-07T06:15:22.132Z,999.07
2019-04-07T06:16:22.530Z,999.02
2019-04-07T06:17:24.189Z,998.96
2019-04-07T06:18:21.135Z,998.96
2019-04-07T06:19:21.518Z,998.98
2019-04-07T06:20:22.584Z,998.85
2019-04-07T06:21:22.171Z,998.82
2019-04-07T06:22:22.030Z,998.73
2019-04-07T06:23:24.259Z,998.78
2019-04-07T06:24:23.097Z,998.71
2019-04-07T06:25:22.312Z,998.56
2019-04-07T06:26:22.559Z,998.30
2019-04-07T06:27:22.846Z,997.59
2019-04-07T06:28:23.793Z,996.70
2019-04-07T06:29:26.107Z,996.28
2019-04-07T06:30:28.089Z,995.56
2019-04-07T06:31:26.082Z,994.85
2019-04-07T06:32:24.586Z,994.21
2019-04-07T06:33:23.795Z,993.72
2019-04-07T06:34:24.959Z,993.36
2019-04-07T06:35:25.117Z,993.20
2019-04-07T06:36:26.572Z,992.90
2019-04-07T06:37:28.869Z,992.71
2019-04-07T06:38:33.065Z,992.63
2019-04-07T06:39:27.603Z,992.37
2019-04-07T06:40:24.870Z,992.21
2019-04-07T06:41:30.113Z,992.18
2019-04-07T06:42:31.545Z,992.14
2019-04-07T06:43:27.070Z,992.02
2019-04-07T06:44:25.950Z,992.03
2019-04-07T06:45:26.566Z,991.93
2019-04-07T06:46:28.483Z,991.86
2019-04-07T06:47:30.795Z,991.71
2019-04-07T06:48:26.709Z,991.62
2019-04-07T06:49:28.416Z,991.67
2019-04-07T06:50:28.421Z,991.68
2019-04-07T06:51:29.202Z,991.62
2019-04-07T06:52:28.552Z,991.77
2019-04-07T06:53:27.058Z,992.36
2019-04-07T06:54:27.163Z,993.07
2019-04-07T06:55:28.912Z,993.73
2019-04-07T06:56:32.179Z,994.23
2019-04-07T06:57:29.914Z,994.61
2019-04-07T06:58:28.946Z,994.71
2019-04-07T06:59:28.368Z,994.38
2019-04-07T07:00:29.005Z,993.94
2019-04-07T07:01:29.645Z,993.47
2019-04-07T07:02:29.515Z,993.01
2019-04-07T07:03:33.542Z,992.65
2019-04-07T07:04:31.103Z,992.41
2019-04-07T07:05:29.950Z,992.17
2019-04-07T07:06:29.503Z,992.11
2019-04-07T07:07:29.668Z,992.05
2019-04-07T07:08:37.249Z,992.04
2019-04-07T07:09:31.786Z,992.02
2019-04-07T07:10:35.053Z,991.98
2019-04-07T07:11:34.375Z,991.87
2019-04-07T07:12:38.073Z,991.79
2019-04-07T07:13:35.440Z,991.62
2019-04-07T07:14:40.501Z,991.53
2019-04-07T07:15:35.376Z,991.50
2019-04-07T07:16:32.943Z,991.38
2019-04-07T07:17:32.253Z,991.28
2019-04-07T07:18:32.210Z,991.21
2019-04-07T07:19:31.699Z,991.16
2019-04-07T07:20:31.889Z,991.04
2019-04-07T07:21:36.487Z,991.08
2019-04-07T07:22:34.521Z,991.11
2019-04-07T07:23:33.170Z,991.12
2019-04-07T07:24:32.756Z,991.05
2019-04-07T07:25:33.302Z,991.09
2019-04-07T07:26:35.407Z,991.04
2019-04-07T07:27:34.430Z,991.10
2019-04-07T07:28:33.947Z,991.04
2019-04-07T07:29:33.832Z,991.16
2019-04-07T07:30:34.928Z,991.12
2019-04-07T07:31:35.726Z,991.16
2019-04-07T07:32:37.279Z,991.28
2019-04-07T07:33:38.931Z,991.33
2019-04-07T07:34:39.900Z,991.48
2019-04-07T07:35:35.634Z,991.52
2019-04-07T07:36:35.064Z,991.40
2019-04-07T07:37:35.347Z,991.29
2019-04-07T07:38:35.264Z,991.33
2019-04-07T07:39:36.047Z,991.61
2019-04-07T07:40:35.647Z,992.11
2019-04-07T07:41:35.797Z,992.72
2019-04-07T07:42:36.601Z,993.17
2019-04-07T07:43:36.101Z,993.65
2019-04-07T07:44:38.478Z,994.00
2019-04-07T07:45:37.200Z,994.35
2019-04-07T07:46:37.390Z,994.62
2019-04-07T07:47:37.229Z,994.87
2019-04-07T07:48:37.720Z,995.20
2019-04-07T07:49:40.340Z,995.12
2019-04-07T07:50:40.296Z,995.00
2019-04-07T07:51:39.373Z,994.85
2019-04-07T07:52:38.857Z,994.59
2019-04-07T07:53:38.307Z,994.37
2019-04-07T07:54:38.657Z,994.24
2019-04-07T07:55:38.661Z,994.04
2019-04-07T07:56:41.445Z,993.63
2019-04-07T07:57:40.482Z,993.31
2019-04-07T07:58:39.578Z,993.13
2019-04-07T07:59:40.192Z,993.21
2019-04-07T08:00:42.357Z,993.17
2019-04-07T08:01:44.283Z,992.96
2019-04-07T08:02:41.547Z,992.71
2019-04-07T08:03:40.501Z,992.60
2019-04-07T08:04:39.974Z,992.51
2019-04-07T08:05:40.865Z,992.42
2019-04-07T08:06:41.062Z,992.47
2019-04-07T08:07:45.721Z,992.37
2019-04-07T08:08:45.155Z,992.25
2019-04-07T08:09:42.128Z,992.25
2019-04-07T08:10:41.174Z,992.33
2019-04-07T08:11:41.403Z,992.36
2019-04-07T08:12:42.162Z,992.39
2019-04-07T08:13:44.723Z,992.39
2019-04-07T08:14:43.697Z,992.36
2019-04-07T08:15:42.627Z,992.42
2019-04-07T08:16:42.476Z,992.50
2019-04-07T08:17:43.083Z,992.61
2019-04-07T08:18:45.217Z,992.85
2019-04-07T08:19:44.530Z,993.13
2019-04-07T08:20:45.092Z,993.30
2019-04-07T08:21:45.629Z,993.22
2019-04-07T08:22:44.024Z,993.16
2019-04-07T08:23:45.372Z,993.23
2019-04-07T08:24:45.492Z,993.31
2019-04-07T08:25:43.792Z,993.60
2019-04-07T08:26:44.753Z,993.59
2019-04-07T08:27:44.190Z,993.64
2019-04-07T08:28:45.046Z,993.59
2019-04-07T08:29:45.235Z,993.49
2019-04-07T08:30:47.442Z,993.52
2019-04-07T08:31:44.890Z,993.57
2019-04-07T08:32:45.398Z,993.46
2019-04-07T08:33:45.066Z,993.49
2019-04-07T08:34:45.938Z,993.58
2019-04-07T08:35:45.968Z,993.65
2019-04-07T08:36:47.039Z,993.80
2019-04-07T08:37:46.361Z,993.92
2019-04-07T08:38:47.688Z,994.03
2019-04-07T08:39:46.046Z,993.95
2019-04-07T08:40:46.819Z,994.09
2019-04-07T08:41:47.192Z,994.39
2019-04-07T08:42:49.055Z,994.83
2019-04-07T08:43:48.391Z,995.03
2019-04-07T08:44:47.366Z,995.13
2019-04-07T08:45:47.168Z,994.88
2019-04-07T08:46:47.483Z,994.79
2019-04-07T08:47:50.034Z,994.72
2019-04-07T08:48:51.016Z,994.62
2019-04-07T08:49:49.537Z,994.60
2019-04-07T08:50:48.602Z,994.39
2019-04-07T08:51:49.506Z,994.45
2019-04-07T08:52:48.496Z,994.63
2019-04-07T08:53:48.632Z,994.68
2019-04-07T08:54:51.399Z,994.53
2019-04-07T08:55:52.121Z,994.58
2019-04-07T08:56:50.273Z,994.44
2019-04-07T08:57:49.469Z,994.49
2019-04-07T08:58:49.488Z,994.31
2019-04-07T08:59:49.630Z,994.24
2019-04-07T09:00:51.976Z,994.13
2019-04-07T09:01:53.497Z,993.98
2019-04-07T09:03:01.710Z,993.89
2019-04-07T09:03:52.713Z,994.02
2019-04-07T09:04:52.400Z,994.02
2019-04-07T09:05:51.346Z,993.97
2019-04-07T09:06:50.816Z,993.96
2019-04-07T09:07:51.797Z,994.17
2019-04-07T09:08:52.141Z,994.24
2019-04-07T09:09:51.451Z,994.31
2019-04-07T09:10:52.641Z,994.25
2019-04-07T09:11:54.909Z,994.37
2019-04-07T09:12:52.991Z,994.38
2019-04-07T09:13:52.603Z,994.60
2019-04-07T09:14:52.143Z,994.72
2019-04-07T09:15:52.298Z,994.70
2019-04-07T09:16:54.948Z,994.72
2019-04-07T09:17:54.328Z,994.75
2019-04-07T09:19:00.699Z,994.77
2019-04-07T09:19:55.482Z,994.78
2019-04-07T09:20:53.180Z,994.73
2019-04-07T09:21:54.237Z,994.72
2019-04-07T09:22:56.642Z,994.69
2019-04-07T09:23:56.324Z,994.73
2019-04-07T09:24:54.483Z,994.67
2019-04-07T09:25:55.104Z,994.67
2019-04-07T09:26:54.428Z,994.67
2019-04-07T09:27:55.041Z,994.63
2019-04-07T09:28:55.813Z,994.65
2019-04-07T09:29:57.836Z,994.60
2019-04-07T09:30:56.330Z,994.62
2019-04-07T09:31:54.845Z,994.52
2019-04-07T09:32:55.804Z,994.42
2019-04-07T09:33:56.090Z,994.58
2019-04-07T09:34:56.187Z,994.74
2019-04-07T09:35:59.067Z,994.81
2019-04-07T09:36:56.739Z,994.84
2019-04-07T09:37:56.020Z,994.98
2019-04-07T09:38:59.943Z,995.06
2019-04-07T09:40:01.041Z,995.10
2019-04-07T09:40:58.401Z,995.14
2019-04-07T09:41:57.229Z,995.12
2019-04-07T09:42:59.910Z,995.26
2019-04-07T09:44:01.079Z,995.36
2019-04-07T09:44:57.511Z,995.38
2019-04-07T09:45:57.420Z,995.41
2019-04-07T09:46:58.549Z,995.47
2019-04-07T09:47:57.771Z,995.42
2019-04-07T09:48:58.766Z,995.46
2019-04-07T09:49:58.419Z,995.39
2019-04-07T09:51:02.418Z,995.28
2019-04-07T09:52:00.979Z,995.33
2019-04-07T09:52:58.509Z,995.29
2019-04-07T09:54:00.286Z,995.30
2019-04-07T09:54:58.871Z,995.20
2019-04-07T09:55:59.223Z,995.24
2019-04-07T09:57:03.354Z,995.20
2019-04-07T09:58:00.274Z,995.14
2019-04-07T09:59:00.297Z,995.20
2019-04-07T10:00:00.458Z,995.17
2019-04-07T10:00:59.848Z,995.18
2019-04-07T10:02:01.502Z,995.23
2019-04-07T10:03:04.997Z,995.20
2019-04-07T10:04:01.542Z,995.26
2019-04-07T10:05:01.010Z,995.20
2019-04-07T10:06:00.994Z,995.32
2019-04-07T10:07:02.659Z,995.37
2019-04-07T10:08:02.195Z,995.36
2019-04-07T10:09:02.142Z,995.45
2019-04-07T10:10:09.964Z,995.51
2019-04-07T10:11:04.230Z,995.58
2019-04-07T10:12:02.999Z,995.64
2019-04-07T10:13:03.132Z,995.84
2019-04-07T10:14:02.394Z,995.93
2019-04-07T10:15:03.036Z,995.90
2019-04-07T10:16:02.833Z,995.95
2019-04-07T10:17:03.498Z,996.00
2019-04-07T10:18:03.272Z,996.07
2019-04-07T10:19:03.322Z,996.04
2019-04-07T10:20:04.968Z,996.23
2019-04-07T10:21:03.746Z,996.28
2019-04-07T10:22:03.880Z,996.40
2019-04-07T10:23:04.015Z,996.33
2019-04-07T10:24:04.133Z,996.41
2019-04-07T10:25:04.450Z,996.33
2019-04-07T10:26:05.020Z,996.30
2019-04-07T10:27:05.902Z,996.25
2019-04-07T10:28:07.330Z,996.37
2019-04-07T10:29:06.061Z,996.48
2019-04-07T10:30:05.742Z,996.56
2019-04-07T10:31:05.469Z,996.61
2019-04-07T10:32:06.399Z,996.74
2019-04-07T10:33:06.692Z,996.83
2019-04-07T10:34:08.056Z,996.80
2019-04-07T10:35:06.888Z,996.78
2019-04-07T10:36:07.762Z,997.06
2019-04-07T10:37:06.785Z,996.94
2019-04-07T10:38:07.482Z,996.75
2019-04-07T10:39:07.340Z,996.72
2019-04-07T10:40:16.679Z,996.74
2019-04-07T10:41:09.249Z,996.71
2019-04-07T10:42:07.431Z,996.55
2019-04-07T10:43:08.404Z,996.67
2019-04-07T10:44:08.469Z,996.48
2019-04-07T10:45:08.991Z,996.43
2019-04-07T10:46:08.265Z,996.38
2019-04-07T10:47:08.256Z,996.38
2019-04-07T10:48:09.404Z,996.26
2019-04-07T10:49:09.231Z,996.25
2019-04-07T10:50:08.940Z,996.30
2019-04-07T10:51:10.523Z,996.20
2019-04-07T10:52:09.262Z,996.07
2019-04-07T10:53:09.518Z,996.13
2019-04-07T10:54:10.040Z,996.10
2019-04-07T10:55:09.737Z,995.94
2019-04-07T10:56:09.928Z,995.99
2019-04-07T10:57:10.041Z,996.01
2019-04-07T10:58:10.609Z,996.00
2019-04-07T10:59:10.544Z,995.95
2019-04-07T11:00:11.000Z,995.99
2019-04-07T11:01:11.138Z,995.93
2019-04-07T11:02:11.818Z,995.97
2019-04-07T11:03:11.125Z,995.90
2019-04-07T11:04:11.308Z,996.17
2019-04-07T11:05:12.015Z,996.32
2019-04-07T11:06:11.695Z,996.32
2019-04-07T11:07:11.846Z,996.31
2019-04-07T11:08:12.029Z,996.41
2019-04-07T11:09:12.191Z,996.52
2019-04-07T11:10:12.528Z,996.56
2019-04-07T11:11:13.288Z,996.66
2019-04-07T11:12:12.678Z,996.90
2019-04-07T11:13:14.599Z,996.97
2019-04-07T11:14:13.434Z,996.89
2019-04-07T11:15:13.789Z,996.90
2019-04-07T11:16:13.211Z,996.98
2019-04-07T11:17:14.102Z,997.00
2019-04-07T11:18:13.747Z,997.02
2019-04-07T11:19:14.882Z,997.02
2019-04-07T11:20:14.882Z,997.06
2019-04-07T11:21:14.277Z,997.18
2019-04-07T11:22:14.526Z,997.15
2019-04-07T11:23:15.521Z,997.27
2019-04-07T11:24:15.503Z,997.31
2019-04-07T11:25:16.469Z,997.25
2019-04-07T11:26:15.538Z,997.32
2019-04-07T11:27:15.512Z,997.57
2019-04-07T11:28:15.629Z,997.55
2019-04-07T11:29:16.585Z,997.66
2019-04-07T11:30:16.909Z,997.71
2019-04-07T11:31:16.826Z,997.64
2019-04-07T11:32:16.524Z,997.71
2019-04-07T11:33:16.614Z,997.77
2019-04-07T11:34:17.467Z,997.66
2019-04-07T11:35:17.139Z,997.69
2019-04-07T11:36:19.544Z,997.81
2019-04-07T11:37:18.948Z,997.74
2019-04-07T11:38:19.702Z,997.81
2019-04-07T11:39:17.830Z,997.74
2019-04-07T11:40:19.207Z,997.64
2019-04-07T11:41:21.669Z,997.83
2019-04-07T11:42:20.361Z,997.72
2019-04-07T11:43:18.559Z,997.89
2019-04-07T11:44:20.184Z,997.81
2019-04-07T11:45:20.703Z,998.11
2019-04-07T11:46:19.089Z,998.11
2019-04-07T11:47:19.719Z,998.09
2019-04-07T11:48:19.397Z,998.21
2019-04-07T11:49:19.580Z,998.27
2019-04-07T11:50:19.694Z,998.30
2019-04-07T11:51:20.572Z,998.44
2019-04-07T11:52:20.076Z,998.54
2019-04-07T11:53:21.182Z,998.54
2019-04-07T11:54:20.443Z,998.60
2019-04-07T11:55:20.580Z,998.32
2019-04-07T11:56:20.734Z,998.44
2019-04-07T11:57:21.524Z,998.44
2019-04-07T11:58:28.787Z,998.57
2019-04-07T11:59:23.940Z,998.66
2019-04-07T12:00:21.530Z,998.76
2019-04-07T12:01:22.925Z,998.82
2019-04-07T12:02:23.050Z,998.70
2019-04-07T12:03:24.826Z,998.70
2019-04-07T12:04:25.115Z,998.70
2019-04-07T12:05:22.436Z,998.54
2019-04-07T12:06:24.631Z,998.38
2019-04-07T12:07:23.748Z,998.41
2019-04-07T12:08:25.048Z,998.41
2019-04-07T12:09:24.135Z,998.42
2019-04-07T12:10:23.238Z,998.42
2019-04-07T12:11:23.423Z,998.38
2019-04-07T12:12:24.516Z,998.30
2019-04-07T12:13:23.767Z,998.24
2019-04-07T12:14:24.458Z,998.20
2019-04-07T12:15:26.714Z,998.12
2019-04-07T12:16:28.643Z,998.21
2019-04-07T12:17:24.626Z,998.06
2019-04-07T12:18:24.831Z,998.10
2019-04-07T12:19:26.049Z,998.05
2019-04-07T12:20:27.377Z,997.99
2019-04-07T12:21:26.724Z,998.02
2019-04-07T12:22:26.134Z,997.97
2019-04-07T12:23:27.474Z,997.92
2019-04-07T12:24:28.663Z,997.94
2019-04-07T12:25:29.354Z,998.17